sensor_id;sensor_type;location;lat;lon;timestamp;P1;durP1;ratioP1;P2;durP2;ratioP2
22468;SDS011;11401;50.792;4.352;2023-09-18T00:00:48;5.70;;;4.20;;
22468;SDS011;11401;50.792;4.352;2023-09-18T00:03:23;4.30;;;3.97;;
22468;SDS011;11401;50.792;4.352;2023-09-18T00:05:53;6.45;;;4.25;;
22468;SDS011;11401;50.792;4.352;2023-09-18T00:08:20;7.82;;;4.20;;
22468;SDS011;11401;50.792;4.352;2023-09-18T00:10:48;6.78;;;3.67;;
22468;SDS011;11401;50.792;4.352;2023-09-18T00:13:20;4.28;;;3.88;;
22468;SDS011;11401;50.792;4.352;2023-09-18T00:15:48;3.92;;;3.45;;
22468;SDS011;11401;50.792;4.352;2023-09-18T00:18:15;4.28;;;3.88;;
22468;SDS011;11401;50.792;4.352;2023-09-18T00:20:43;5.82;;;4.28;;
22468;SDS011;11401;50.792;4.352;2023-09-18T00:23:11;7.70;;;4.03;;
22468;SDS011;11401;50.792;4.352;2023-09-18T00:25:39;5.13;;;4.68;;
22468;SDS011;11401;50.792;4.352;2023-09-18T00:28:08;4.85;;;4.20;;
22468;SDS011;11401;50.792;4.352;2023-09-18T00:30:37;4.57;;;3.97;;
22468;SDS011;11401;50.792;4.352;2023-09-18T00:33:09;6.45;;;4.22;;
22468;SDS011;11401;50.792;4.352;2023-09-18T00:35:36;4.50;;;3.83;;
22468;SDS011;11401;50.792;4.352;2023-09-18T00:38:03;4.95;;;3.83;;
22468;SDS011;11401;50.792;4.352;2023-09-18T00:40:30;5.15;;;4.13;;
22468;SDS011;11401;50.792;4.352;2023-09-18T00:42:57;5.50;;;3.70;;
22468;SDS011;11401;50.792;4.352;2023-09-18T00:45:24;5.28;;;3.95;;
22468;SDS011;11401;50.792;4.352;2023-09-18T00:47:51;4.72;;;4.13;;
22468;SDS011;11401;50.792;4.352;2023-09-18T00:50:18;4.22;;;3.60;;
22468;SDS011;11401;50.792;4.352;2023-09-18T00:52:45;7.97;;;4.43;;
22468;SDS011;11401;50.792;4.352;2023-09-18T00:55:13;6.28;;;4.30;;
22468;SDS011;11401;50.792;4.352;2023-09-18T00:57:41;7.85;;;4.22;;
22468;SDS011;11401;50.792;4.352;2023-09-18T01:00:09;6.07;;;4.05;;
22468;SDS011;11401;50.792;4.352;2023-09-18T01:02:41;4.10;;;3.80;;
22468;SDS011;11401;50.792;4.352;2023-09-18T01:05:08;7.80;;;3.97;;
22468;SDS011;11401;50.792;4.352;2023-09-18T01:07:35;5.68;;;4.15;;
22468;SDS011;11401;50.792;4.352;2023-09-18T01:10:02;4.18;;;3.67;;
22468;SDS011;11401;50.792;4.352;2023-09-18T01:15:25;6.35;;;4.65;;
22468;SDS011;11401;50.792;4.352;2023-09-18T01:17:56;5.75;;;4.15;;
22468;SDS011;11401;50.792;4.352;2023-09-18T01:20:24;6.00;;;4.68;;
22468;SDS011;11401;50.792;4.352;2023-09-18T01:22:51;5.50;;;4.38;;
22468;SDS011;11401;50.792;4.352;2023-09-18T01:25:18;4.20;;;3.85;;
22468;SDS011;11401;50.792;4.352;2023-09-18T01:27:45;6.57;;;4.18;;
22468;SDS011;11401;50.792;4.352;2023-09-18T01:30:12;5.05;;;4.57;;
22468;SDS011;11401;50.792;4.352;2023-09-18T01:32:39;5.05;;;3.90;;
22468;SDS011;11401;50.792;4.352;2023-09-18T01:35:07;5.18;;;3.85;;
22468;SDS011;11401;50.792;4.352;2023-09-18T01:37:36;9.25;;;4.43;;
22468;SDS011;11401;50.792;4.352;2023-09-18T01:40:06;5.50;;;4.18;;
22468;SDS011;11401;50.792;4.352;2023-09-18T01:42:34;5.05;;;3.78;;
22468;SDS011;11401;50.792;4.352;2023-09-18T01:45:02;4.85;;;3.90;;
22468;SDS011;11401;50.792;4.352;2023-09-18T01:47:32;5.55;;;3.97;;
22468;SDS011;11401;50.792;4.352;2023-09-18T01:50:02;4.82;;;4.28;;
22468;SDS011;11401;50.792;4.352;2023-09-18T01:52:32;5.40;;;3.67;;
22468;SDS011;11401;50.792;4.352;2023-09-18T01:55:02;4.20;;;3.80;;
22468;SDS011;11401;50.792;4.352;2023-09-18T01:57:34;5.60;;;4.65;;
22468;SDS011;11401;50.792;4.352;2023-09-18T02:00:02;4.35;;;3.92;;
22468;SDS011;11401;50.792;4.352;2023-09-18T02:02:37;4.57;;;4.03;;
22468;SDS011;11401;50.792;4.352;2023-09-18T02:05:25;4.45;;;4.05;;
22468;SDS011;11401;50.792;4.352;2023-09-18T02:07:52;4.47;;;3.78;;
22468;SDS011;11401;50.792;4.352;2023-09-18T02:10:19;4.82;;;4.32;;
22468;SDS011;11401;50.792;4.352;2023-09-18T02:12:46;3.72;;;3.40;;
22468;SDS011;11401;50.792;4.352;2023-09-18T02:15:13;6.45;;;4.20;;
22468;SDS011;11401;50.792;4.352;2023-09-18T02:17:43;3.90;;;3.58;;
22468;SDS011;11401;50.792;4.352;2023-09-18T02:20:12;4.90;;;3.92;;
22468;SDS011;11401;50.792;4.352;2023-09-18T02:22:39;5.95;;;4.13;;
22468;SDS011;11401;50.792;4.352;2023-09-18T02:25:07;4.43;;;4.03;;
22468;SDS011;11401;50.792;4.352;2023-09-18T02:27:35;5.43;;;3.78;;
22468;SDS011;11401;50.792;4.352;2023-09-18T02:30:02;6.68;;;4.68;;
22468;SDS011;11401;50.792;4.352;2023-09-18T02:32:30;4.93;;;3.97;;
22468;SDS011;11401;50.792;4.352;2023-09-18T02:34:57;6.70;;;4.15;;
22468;SDS011;11401;50.792;4.352;2023-09-18T02:37:24;3.90;;;3.58;;
22468;SDS011;11401;50.792;4.352;2023-09-18T02:39:51;4.32;;;3.95;;
22468;SDS011;11401;50.792;4.352;2023-09-18T02:42:18;4.38;;;3.67;;
22468;SDS011;11401;50.792;4.352;2023-09-18T02:44:45;4.43;;;3.78;;
22468;SDS011;11401;50.792;4.352;2023-09-18T02:47:13;4.45;;;3.83;;
22468;SDS011;11401;50.792;4.352;2023-09-18T02:49:40;4.97;;;3.72;;
22468;SDS011;11401;50.792;4.352;2023-09-18T02:52:08;5.50;;;3.83;;
22468;SDS011;11401;50.792;4.352;2023-09-18T02:54:35;5.57;;;3.67;;
22468;SDS011;11401;50.792;4.352;2023-09-18T02:57:02;5.47;;;3.35;;
22468;SDS011;11401;50.792;4.352;2023-09-18T02:59:29;7.53;;;3.55;;
22468;SDS011;11401;50.792;4.352;2023-09-18T03:01:56;4.65;;;3.15;;
22468;SDS011;11401;50.792;4.352;2023-09-18T03:04:23;3.20;;;2.90;;
22468;SDS011;11401;50.792;4.352;2023-09-18T03:06:50;3.67;;;2.92;;
22468;SDS011;11401;50.792;4.352;2023-09-18T03:09:17;3.83;;;3.33;;
22468;SDS011;11401;50.792;4.352;2023-09-18T03:11:45;3.28;;;3.00;;
22468;SDS011;11401;50.792;4.352;2023-09-18T03:14:12;5.18;;;3.35;;
22468;SDS011;11401;50.792;4.352;2023-09-18T03:16:39;5.78;;;3.17;;
22468;SDS011;11401;50.792;4.352;2023-09-18T03:19:06;4.25;;;3.60;;
22468;SDS011;11401;50.792;4.352;2023-09-18T03:21:33;4.70;;;2.90;;
22468;SDS011;11401;50.792;4.352;2023-09-18T03:24:02;3.75;;;3.10;;
22468;SDS011;11401;50.792;4.352;2023-09-18T03:26:29;2.72;;;2.53;;
22468;SDS011;11401;50.792;4.352;2023-09-18T03:28:56;3.15;;;2.92;;
22468;SDS011;11401;50.792;4.352;2023-09-18T03:31:24;3.90;;;2.75;;
22468;SDS011;11401;50.792;4.352;2023-09-18T03:33:51;5.28;;;2.90;;
22468;SDS011;11401;50.792;4.352;2023-09-18T03:36:20;5.00;;;3.15;;
22468;SDS011;11401;50.792;4.352;2023-09-18T03:38:49;2.83;;;2.63;;
22468;SDS011;11401;50.792;4.352;2023-09-18T03:41:17;3.33;;;2.92;;
22468;SDS011;11401;50.792;4.352;2023-09-18T03:43:44;4.13;;;3.00;;
22468;SDS011;11401;50.792;4.352;2023-09-18T03:46:11;6.13;;;3.22;;
22468;SDS011;11401;50.792;4.352;2023-09-18T03:48:43;4.18;;;2.65;;
22468;SDS011;11401;50.792;4.352;2023-09-18T03:51:10;6.40;;;3.03;;
22468;SDS011;11401;50.792;4.352;2023-09-18T03:53:42;5.50;;;3.85;;
22468;SDS011;11401;50.792;4.352;2023-09-18T03:56:09;4.72;;;3.30;;
22468;SDS011;11401;50.792;4.352;2023-09-18T03:58:37;3.58;;;2.88;;
22468;SDS011;11401;50.792;4.352;2023-09-18T04:01:04;3.53;;;2.90;;
22468;SDS011;11401;50.792;4.352;2023-09-18T04:03:31;6.00;;;3.22;;
22468;SDS011;11401;50.792;4.352;2023-09-18T04:05:58;4.15;;;2.90;;
22468;SDS011;11401;50.792;4.352;2023-09-18T04:08:25;5.57;;;3.25;;
22468;SDS011;11401;50.792;4.352;2023-09-18T04:10:54;3.90;;;2.92;;
22468;SDS011;11401;50.792;4.352;2023-09-18T04:13:23;3.10;;;2.58;;
22468;SDS011;11401;50.792;4.352;2023-09-18T04:15:52;6.43;;;2.90;;
22468;SDS011;11401;50.792;4.352;2023-09-18T04:18:23;4.88;;;2.97;;
22468;SDS011;11401;50.792;4.352;2023-09-18T04:20:51;3.53;;;2.85;;
22468;SDS011;11401;50.792;4.352;2023-09-18T04:23:22;4.68;;;3.08;;
22468;SDS011;11401;50.792;4.352;2023-09-18T04:25:51;4.20;;;3.55;;
22468;SDS011;11401;50.792;4.352;2023-09-18T04:28:21;6.57;;;2.55;;
22468;SDS011;11401;50.792;4.352;2023-09-18T04:30:49;2.92;;;2.50;;
22468;SDS011;11401;50.792;4.352;2023-09-18T04:33:16;3.20;;;2.58;;
22468;SDS011;11401;50.792;4.352;2023-09-18T04:35:44;3.45;;;2.13;;
22468;SDS011;11401;50.792;4.352;2023-09-18T04:38:12;3.20;;;2.38;;
22468;SDS011;11401;50.792;4.352;2023-09-18T04:40:43;2.65;;;2.28;;
22468;SDS011;11401;50.792;4.352;2023-09-18T04:43:12;2.22;;;1.67;;
22468;SDS011;11401;50.792;4.352;2023-09-18T04:45:39;2.95;;;1.92;;
22468;SDS011;11401;50.792;4.352;2023-09-18T04:48:07;3.45;;;1.90;;
22468;SDS011;11401;50.792;4.352;2023-09-18T04:50:35;3.03;;;2.10;;
22468;SDS011;11401;50.792;4.352;2023-09-18T04:53:02;2.08;;;1.95;;
22468;SDS011;11401;50.792;4.352;2023-09-18T04:55:31;2.78;;;1.77;;
22468;SDS011;11401;50.792;4.352;2023-09-18T04:57:58;3.08;;;2.20;;
22468;SDS011;11401;50.792;4.352;2023-09-18T05:00:26;4.80;;;2.17;;
22468;SDS011;11401;50.792;4.352;2023-09-18T05:02:56;3.17;;;2.50;;
22468;SDS011;11401;50.792;4.352;2023-09-18T05:05:25;2.80;;;2.60;;
22468;SDS011;11401;50.792;4.352;2023-09-18T05:07:52;2.83;;;2.33;;
22468;SDS011;11401;50.792;4.352;2023-09-18T05:10:21;3.88;;;1.73;;
22468;SDS011;11401;50.792;4.352;2023-09-18T05:12:48;2.60;;;2.00;;
22468;SDS011;11401;50.792;4.352;2023-09-18T05:15:17;3.00;;;1.73;;
22468;SDS011;11401;50.792;4.352;2023-09-18T05:17:45;5.35;;;2.05;;
22468;SDS011;11401;50.792;4.352;2023-09-18T05:20:15;2.22;;;1.75;;
22468;SDS011;11401;50.792;4.352;2023-09-18T05:22:44;2.05;;;1.77;;
22468;SDS011;11401;50.792;4.352;2023-09-18T05:25:13;2.45;;;1.85;;
22468;SDS011;11401;50.792;4.352;2023-09-18T05:27:42;4.50;;;2.17;;
22468;SDS011;11401;50.792;4.352;2023-09-18T05:30:17;2.20;;;1.73;;
22468;SDS011;11401;50.792;4.352;2023-09-18T05:32:48;3.28;;;1.80;;
22468;SDS011;11401;50.792;4.352;2023-09-18T05:35:15;4.78;;;1.58;;
22468;SDS011;11401;50.792;4.352;2023-09-18T05:37:43;3.00;;;1.35;;
22468;SDS011;11401;50.792;4.352;2023-09-18T05:40:11;4.10;;;1.80;;
22468;SDS011;11401;50.792;4.352;2023-09-18T05:42:40;3.20;;;1.85;;
22468;SDS011;11401;50.792;4.352;2023-09-18T05:45:12;2.13;;;1.65;;
22468;SDS011;11401;50.792;4.352;2023-09-18T05:47:41;2.42;;;1.60;;
22468;SDS011;11401;50.792;4.352;2023-09-18T05:50:10;3.83;;;1.73;;
22468;SDS011;11401;50.792;4.352;2023-09-18T05:52:45;2.42;;;1.83;;
22468;SDS011;11401;50.792;4.352;2023-09-18T05:55:15;2.38;;;1.45;;
22468;SDS011;11401;50.792;4.352;2023-09-18T05:57:42;2.22;;;1.55;;
22468;SDS011;11401;50.792;4.352;2023-09-18T06:00:10;2.25;;;1.90;;
22468;SDS011;11401;50.792;4.352;2023-09-18T06:02:42;3.95;;;1.67;;
22468;SDS011;11401;50.792;4.352;2023-09-18T06:05:11;2.50;;;1.73;;
22468;SDS011;11401;50.792;4.352;2023-09-18T06:07:38;1.92;;;1.70;;
22468;SDS011;11401;50.792;4.352;2023-09-18T06:10:06;3.50;;;1.42;;
22468;SDS011;11401;50.792;4.352;2023-09-18T06:12:33;1.90;;;1.70;;
22468;SDS011;11401;50.792;4.352;2023-09-18T06:15:00;3.40;;;1.60;;
22468;SDS011;11401;50.792;4.352;2023-09-18T06:17:27;1.95;;;1.67;;
22468;SDS011;11401;50.792;4.352;2023-09-18T06:19:54;1.95;;;1.75;;
22468;SDS011;11401;50.792;4.352;2023-09-18T13:09:42;2.05;;;1.88;;
22468;SDS011;11401;50.792;4.352;2023-09-18T13:12:09;2.92;;;2.10;;
22468;SDS011;11401;50.792;4.352;2023-09-18T13:17:40;2.55;;;2.20;;
22468;SDS011;11401;50.792;4.352;2023-09-18T13:20:46;1.70;;;1.60;;
22468;SDS011;11401;50.792;4.352;2023-09-18T13:23:07;5.28;;;2.38;;
22468;SDS011;11401;50.792;4.352;2023-09-18T13:25:35;2.42;;;2.22;;
22468;SDS011;11401;50.792;4.352;2023-09-18T13:28:05;3.97;;;2.22;;
22468;SDS011;11401;50.792;4.352;2023-09-18T13:30:34;3.15;;;1.90;;
22468;SDS011;11401;50.792;4.352;2023-09-18T13:33:06;2.55;;;2.10;;
22468;SDS011;11401;50.792;4.352;2023-09-18T13:35:40;3.55;;;2.33;;
22468;SDS011;11401;50.792;4.352;2023-09-18T13:38:08;3.08;;;2.33;;
22468;SDS011;11401;50.792;4.352;2023-09-18T13:40:38;3.05;;;2.30;;
22468;SDS011;11401;50.792;4.352;2023-09-18T13:43:06;5.13;;;2.20;;
22468;SDS011;11401;50.792;4.352;2023-09-18T13:45:37;2.25;;;2.05;;
22468;SDS011;11401;50.792;4.352;2023-09-18T13:48:07;5.38;;;2.17;;
22468;SDS011;11401;50.792;4.352;2023-09-18T13:50:35;4.95;;;2.67;;
22468;SDS011;11401;50.792;4.352;2023-09-18T13:53:03;4.10;;;1.98;;
22468;SDS011;11401;50.792;4.352;2023-09-18T13:55:34;2.20;;;2.00;;
22468;SDS011;11401;50.792;4.352;2023-09-18T13:58:01;3.95;;;1.85;;
22468;SDS011;11401;50.792;4.352;2023-09-18T14:00:30;2.38;;;2.17;;
22468;SDS011;11401;50.792;4.352;2023-09-18T14:02:57;2.83;;;1.67;;
22468;SDS011;11401;50.792;4.352;2023-09-18T14:05:25;3.00;;;2.20;;
22468;SDS011;11401;50.792;4.352;2023-09-18T14:07:53;2.28;;;2.08;;
22468;SDS011;11401;50.792;4.352;2023-09-18T14:10:27;2.25;;;1.90;;
22468;SDS011;11401;50.792;4.352;2023-09-18T14:12:54;3.03;;;1.85;;
22468;SDS011;11401;50.792;4.352;2023-09-18T14:15:23;4.70;;;2.30;;
22468;SDS011;11401;50.792;4.352;2023-09-18T14:17:51;3.25;;;2.05;;
22468;SDS011;11401;50.792;4.352;2023-09-18T14:20:18;4.53;;;2.00;;
22468;SDS011;11401;50.792;4.352;2023-09-18T14:22:46;4.60;;;2.30;;
22468;SDS011;11401;50.792;4.352;2023-09-18T14:25:16;4.38;;;2.22;;
22468;SDS011;11401;50.792;4.352;2023-09-18T14:27:46;1.80;;;1.70;;
22468;SDS011;11401;50.792;4.352;2023-09-18T14:30:13;2.47;;;2.00;;
22468;SDS011;11401;50.792;4.352;2023-09-18T14:32:40;2.33;;;1.85;;
22468;SDS011;11401;50.792;4.352;2023-09-18T14:35:08;2.88;;;2.17;;
22468;SDS011;11401;50.792;4.352;2023-09-18T14:37:36;3.40;;;2.38;;
22468;SDS011;11401;50.792;4.352;2023-09-18T14:40:04;3.00;;;2.17;;
22468;SDS011;11401;50.792;4.352;2023-09-18T14:42:31;3.33;;;2.20;;
22468;SDS011;11401;50.792;4.352;2023-09-18T14:44:59;2.45;;;2.03;;
22468;SDS011;11401;50.792;4.352;2023-09-18T14:47:28;2.00;;;1.85;;
22468;SDS011;11401;50.792;4.352;2023-09-18T14:49:56;2.75;;;1.85;;
22468;SDS011;11401;50.792;4.352;2023-09-18T14:52:25;2.33;;;2.00;;
22468;SDS011;11401;50.792;4.352;2023-09-18T14:54:52;4.70;;;2.30;;
22468;SDS011;11401;50.792;4.352;2023-09-18T14:57:20;4.32;;;2.03;;
22468;SDS011;11401;50.792;4.352;2023-09-18T14:59:47;4.43;;;2.03;;
22468;SDS011;11401;50.792;4.352;2023-09-18T15:02:15;5.03;;;2.55;;
22468;SDS011;11401;50.792;4.352;2023-09-18T15:04:45;2.63;;;1.98;;
22468;SDS011;11401;50.792;4.352;2023-09-18T15:07:14;4.32;;;2.22;;
22468;SDS011;11401;50.792;4.352;2023-09-18T15:09:41;1.95;;;1.80;;
22468;SDS011;11401;50.792;4.352;2023-09-18T15:12:08;2.30;;;2.10;;
22468;SDS011;11401;50.792;4.352;2023-09-18T15:14:38;2.25;;;2.08;;
22468;SDS011;11401;50.792;4.352;2023-09-18T15:17:05;3.35;;;2.25;;
22468;SDS011;11401;50.792;4.352;2023-09-18T15:19:34;3.85;;;2.25;;
22468;SDS011;11401;50.792;4.352;2023-09-18T15:22:02;2.33;;;2.13;;
22468;SDS011;11401;50.792;4.352;2023-09-18T15:24:29;3.08;;;2.15;;
22468;SDS011;11401;50.792;4.352;2023-09-18T15:26:56;2.63;;;2.13;;
22468;SDS011;11401;50.792;4.352;2023-09-18T15:29:24;4.55;;;2.67;;
22468;SDS011;11401;50.792;4.352;2023-09-18T15:31:59;2.85;;;2.13;;
22468;SDS011;11401;50.792;4.352;2023-09-18T15:34:32;2.10;;;1.85;;
22468;SDS011;11401;50.792;4.352;2023-09-18T15:36:59;2.75;;;2.13;;
22468;SDS011;11401;50.792;4.352;2023-09-18T15:39:30;3.13;;;2.10;;
22468;SDS011;11401;50.792;4.352;2023-09-18T15:41:59;2.28;;;1.80;;
22468;SDS011;11401;50.792;4.352;2023-09-18T15:44:26;2.88;;;1.70;;
22468;SDS011;11401;50.792;4.352;2023-09-18T15:46:54;4.82;;;2.10;;
22468;SDS011;11401;50.792;4.352;2023-09-18T15:49:21;5.95;;;2.50;;
22468;SDS011;11401;50.792;4.352;2023-09-18T15:51:48;3.38;;;2.03;;
22468;SDS011;11401;50.792;4.352;2023-09-18T15:54:15;2.60;;;2.17;;
22468;SDS011;11401;50.792;4.352;2023-09-18T15:56:43;3.40;;;2.42;;
22468;SDS011;11401;50.792;4.352;2023-09-18T15:59:10;2.83;;;2.10;;
22468;SDS011;11401;50.792;4.352;2023-09-18T16:01:38;2.35;;;2.15;;
22468;SDS011;11401;50.792;4.352;2023-09-18T16:04:07;4.15;;;2.13;;
22468;SDS011;11401;50.792;4.352;2023-09-18T16:06:34;1.98;;;1.85;;
22468;SDS011;11401;50.792;4.352;2023-09-18T16:09:01;5.10;;;3.78;;
22468;SDS011;11401;50.792;4.352;2023-09-18T16:11:29;3.38;;;2.38;;
22468;SDS011;11401;50.792;4.352;2023-09-18T16:13:56;2.35;;;2.08;;
22468;SDS011;11401;50.792;4.352;2023-09-18T16:16:24;3.25;;;2.17;;
22468;SDS011;11401;50.792;4.352;2023-09-18T16:18:51;2.92;;;2.17;;
22468;SDS011;11401;50.792;4.352;2023-09-18T16:21:23;2.83;;;2.30;;
22468;SDS011;11401;50.792;4.352;2023-09-18T16:23:50;3.75;;;2.20;;
22468;SDS011;11401;50.792;4.352;2023-09-18T16:26:17;2.42;;;2.08;;
22468;SDS011;11401;50.792;4.352;2023-09-18T16:28:44;3.42;;;1.85;;
22468;SDS011;11401;50.792;4.352;2023-09-18T16:31:13;1.67;;;1.55;;
22468;SDS011;11401;50.792;4.352;2023-09-18T16:33:41;3.83;;;2.00;;
22468;SDS011;11401;50.792;4.352;2023-09-18T16:36:09;5.35;;;2.00;;
22468;SDS011;11401;50.792;4.352;2023-09-18T16:38:36;2.13;;;1.83;;
22468;SDS011;11401;50.792;4.352;2023-09-18T16:41:08;3.75;;;1.50;;
22468;SDS011;11401;50.792;4.352;2023-09-18T16:43:36;3.60;;;1.50;;
22468;SDS011;11401;50.792;4.352;2023-09-18T16:46:05;2.55;;;1.60;;
22468;SDS011;11401;50.792;4.352;2023-09-18T16:48:32;4.90;;;1.80;;
22468;SDS011;11401;50.792;4.352;2023-09-18T16:51:02;2.47;;;1.65;;
22468;SDS011;11401;50.792;4.352;2023-09-18T16:53:30;1.50;;;1.40;;
22468;SDS011;11401;50.792;4.352;2023-09-18T16:55:57;3.40;;;1.50;;
22468;SDS011;11401;50.792;4.352;2023-09-18T16:58:24;1.92;;;1.45;;
22468;SDS011;11401;50.792;4.352;2023-09-18T17:00:51;3.78;;;1.90;;
22468;SDS011;11401;50.792;4.352;2023-09-18T17:03:20;2.65;;;1.50;;
22468;SDS011;11401;50.792;4.352;2023-09-18T17:05:48;1.95;;;1.48;;
22468;SDS011;11401;50.792;4.352;2023-09-18T17:08:16;1.75;;;1.52;;
22468;SDS011;11401;50.792;4.352;2023-09-18T17:10:43;3.97;;;1.38;;
22468;SDS011;11401;50.792;4.352;2023-09-18T17:13:10;3.63;;;1.27;;
22468;SDS011;11401;50.792;4.352;2023-09-18T17:15:37;1.75;;;1.20;;
22468;SDS011;11401;50.792;4.352;2023-09-18T17:18:04;5.10;;;1.90;;
22468;SDS011;11401;50.792;4.352;2023-09-18T17:20:33;3.53;;;1.60;;
22468;SDS011;11401;50.792;4.352;2023-09-18T17:23:00;1.50;;;1.40;;
22468;SDS011;11401;50.792;4.352;2023-09-18T17:25:27;3.78;;;1.50;;
22468;SDS011;11401;50.792;4.352;2023-09-18T17:27:54;3.72;;;1.30;;
22468;SDS011;11401;50.792;4.352;2023-09-18T17:30:22;2.15;;;1.60;;
22468;SDS011;11401;50.792;4.352;2023-09-18T17:32:50;1.85;;;1.30;;
22468;SDS011;11401;50.792;4.352;2023-09-18T17:35:17;1.85;;;1.30;;
22468;SDS011;11401;50.792;4.352;2023-09-18T17:37:45;3.05;;;1.60;;
22468;SDS011;11401;50.792;4.352;2023-09-18T17:40:12;3.67;;;1.55;;
22468;SDS011;11401;50.792;4.352;2023-09-18T17:42:39;2.38;;;1.40;;
22468;SDS011;11401;50.792;4.352;2023-09-18T17:45:06;2.22;;;1.33;;
22468;SDS011;11401;50.792;4.352;2023-09-18T17:47:33;1.75;;;1.20;;
22468;SDS011;11401;50.792;4.352;2023-09-18T17:50:01;2.63;;;1.60;;
22468;SDS011;11401;50.792;4.352;2023-09-18T17:52:28;2.53;;;1.38;;
22468;SDS011;11401;50.792;4.352;2023-09-18T17:54:55;2.30;;;1.42;;
22468;SDS011;11401;50.792;4.352;2023-09-18T17:57:24;1.60;;;1.10;;
22468;SDS011;11401;50.792;4.352;2023-09-18T17:59:51;5.85;;;1.73;;
22468;SDS011;11401;50.792;4.352;2023-09-18T18:02:18;1.90;;;1.42;;
22468;SDS011;11401;50.792;4.352;2023-09-18T18:04:46;2.47;;;1.35;;
22468;SDS011;11401;50.792;4.352;2023-09-18T18:07:13;2.63;;;1.50;;
22468;SDS011;11401;50.792;4.352;2023-09-18T18:09:40;1.88;;;1.60;;
22468;SDS011;11401;50.792;4.352;2023-09-18T18:12:08;2.05;;;1.45;;
22468;SDS011;11401;50.792;4.352;2023-09-18T18:14:35;2.22;;;1.40;;
22468;SDS011;11401;50.792;4.352;2023-09-18T18:17:02;2.30;;;1.60;;
22468;SDS011;11401;50.792;4.352;2023-09-18T18:19:29;5.97;;;1.73;;
22468;SDS011;11401;50.792;4.352;2023-09-18T18:21:57;1.65;;;1.13;;
22468;SDS011;11401;50.792;4.352;2023-09-18T18:24:24;2.42;;;1.23;;
22468;SDS011;11401;50.792;4.352;2023-09-18T18:26:51;7.85;;;1.58;;
22468;SDS011;11401;50.792;4.352;2023-09-18T18:29:19;3.05;;;1.45;;
22468;SDS011;11401;50.792;4.352;2023-09-18T18:31:47;2.10;;;1.38;;
22468;SDS011;11401;50.792;4.352;2023-09-18T18:34:16;3.72;;;1.50;;
22468;SDS011;11401;50.792;4.352;2023-09-18T18:36:43;3.75;;;1.45;;
22468;SDS011;11401;50.792;4.352;2023-09-18T18:39:14;5.50;;;1.92;;
22468;SDS011;11401;50.792;4.352;2023-09-18T18:41:42;2.67;;;1.60;;
22468;SDS011;11401;50.792;4.352;2023-09-18T18:44:09;6.05;;;1.83;;
22468;SDS011;11401;50.792;4.352;2023-09-18T18:46:36;2.47;;;1.50;;
22468;SDS011;11401;50.792;4.352;2023-09-18T18:49:03;4.50;;;1.70;;
22468;SDS011;11401;50.792;4.352;2023-09-18T18:51:30;4.20;;;1.83;;
22468;SDS011;11401;50.792;4.352;2023-09-18T18:53:58;3.30;;;1.30;;
22468;SDS011;11401;50.792;4.352;2023-09-18T18:56:27;4.18;;;1.92;;
22468;SDS011;11401;50.792;4.352;2023-09-18T18:58:54;3.25;;;1.63;;
22468;SDS011;11401;50.792;4.352;2023-09-18T19:01:21;3.42;;;1.65;;
22468;SDS011;11401;50.792;4.352;2023-09-18T19:03:52;4.70;;;1.60;;
22468;SDS011;11401;50.792;4.352;2023-09-18T19:06:20;5.72;;;1.90;;
22468;SDS011;11401;50.792;4.352;2023-09-18T19:08:48;8.20;;;2.10;;
22468;SDS011;11401;50.792;4.352;2023-09-18T19:11:15;5.05;;;2.10;;
22468;SDS011;11401;50.792;4.352;2023-09-18T19:13:42;4.47;;;1.67;;
22468;SDS011;11401;50.792;4.352;2023-09-18T19:16:10;3.15;;;1.50;;
22468;SDS011;11401;50.792;4.352;2023-09-18T19:18:38;6.63;;;1.77;;
22468;SDS011;11401;50.792;4.352;2023-09-18T19:21:06;3.42;;;1.65;;
22468;SDS011;11401;50.792;4.352;2023-09-18T19:23:35;7.82;;;1.75;;
22468;SDS011;11401;50.792;4.352;2023-09-18T19:26:03;8.80;;;3.42;;
22468;SDS011;11401;50.792;4.352;2023-09-18T19:28:31;5.93;;;3.95;;
22468;SDS011;11401;50.792;4.352;2023-09-18T19:30:58;10.10;;;5.10;;
22468;SDS011;11401;50.792;4.352;2023-09-18T19:33:26;11.00;;;6.32;;
22468;SDS011;11401;50.792;4.352;2023-09-18T19:35:54;7.93;;;4.65;;
22468;SDS011;11401;50.792;4.352;2023-09-18T19:38:22;9.25;;;4.50;;
22468;SDS011;11401;50.792;4.352;2023-09-18T19:40:50;11.55;;;4.28;;
22468;SDS011;11401;50.792;4.352;2023-09-18T19:43:18;8.18;;;4.28;;
22468;SDS011;11401;50.792;4.352;2023-09-18T19:45:45;7.95;;;3.90;;
22468;SDS011;11401;50.792;4.352;2023-09-18T19:48:12;7.93;;;4.07;;
22468;SDS011;11401;50.792;4.352;2023-09-18T19:50:40;5.82;;;3.00;;
22468;SDS011;11401;50.792;4.352;2023-09-18T19:53:07;6.28;;;3.10;;
22468;SDS011;11401;50.792;4.352;2023-09-18T19:55:35;6.05;;;3.10;;
22468;SDS011;11401;50.792;4.352;2023-09-18T19:58:02;11.45;;;3.60;;
22468;SDS011;11401;50.792;4.352;2023-09-18T20:00:31;4.60;;;2.72;;
22468;SDS011;11401;50.792;4.352;2023-09-18T20:02:58;7.70;;;2.80;;
22468;SDS011;11401;50.792;4.352;2023-09-18T20:05:26;6.45;;;2.95;;
22468;SDS011;11401;50.792;4.352;2023-09-18T20:07:54;6.22;;;2.75;;
22468;SDS011;11401;50.792;4.352;2023-09-18T20:10:21;4.55;;;2.75;;
22468;SDS011;11401;50.792;4.352;2023-09-18T20:12:50;16.25;;;3.45;;
22468;SDS011;11401;50.792;4.352;2023-09-18T20:15:17;7.88;;;3.17;;
22468;SDS011;11401;50.792;4.352;2023-09-18T20:17:46;9.85;;;4.07;;
22468;SDS011;11401;50.792;4.352;2023-09-18T20:20:13;7.30;;;3.03;;
22468;SDS011;11401;50.792;4.352;2023-09-18T20:22:41;14.57;;;5.05;;
22468;SDS011;11401;50.792;4.352;2023-09-18T20:25:09;10.30;;;5.20;;
22468;SDS011;11401;50.792;4.352;2023-09-18T20:27:39;14.48;;;4.50;;
22468;SDS011;11401;50.792;4.352;2023-09-18T20:30:13;9.52;;;5.63;;
22468;SDS011;11401;50.792;4.352;2023-09-18T20:32:42;10.18;;;4.53;;
22468;SDS011;11401;50.792;4.352;2023-09-18T20:35:10;10.98;;;5.05;;
22468;SDS011;11401;50.792;4.352;2023-09-18T20:37:38;8.18;;;4.78;;
22468;SDS011;11401;50.792;4.352;2023-09-18T20:40:06;11.18;;;4.38;;
22468;SDS011;11401;50.792;4.352;2023-09-18T20:42:33;8.38;;;4.07;;
22468;SDS011;11401;50.792;4.352;2023-09-18T20:45:01;8.55;;;4.40;;
22468;SDS011;11401;50.792;4.352;2023-09-18T20:47:30;13.48;;;4.60;;
22468;SDS011;11401;50.792;4.352;2023-09-18T20:49:59;8.63;;;3.75;;
22468;SDS011;11401;50.792;4.352;2023-09-18T20:52:27;6.85;;;3.80;;
22468;SDS011;11401;50.792;4.352;2023-09-18T20:54:55;6.70;;;3.78;;
22468;SDS011;11401;50.792;4.352;2023-09-18T20:57:24;10.95;;;4.05;;
22468;SDS011;11401;50.792;4.352;2023-09-18T20:59:51;5.53;;;3.35;;
22468;SDS011;11401;50.792;4.352;2023-09-18T21:02:20;7.22;;;3.42;;
22468;SDS011;11401;50.792;4.352;2023-09-18T21:04:48;7.90;;;3.53;;
22468;SDS011;11401;50.792;4.352;2023-09-18T21:07:15;6.55;;;3.50;;
22468;SDS011;11401;50.792;4.352;2023-09-18T21:09:43;11.50;;;3.70;;
22468;SDS011;11401;50.792;4.352;2023-09-18T21:12:10;7.18;;;3.58;;
22468;SDS011;11401;50.792;4.352;2023-09-18T21:14:38;10.32;;;3.13;;
22468;SDS011;11401;50.792;4.352;2023-09-18T21:17:06;7.22;;;3.65;;
22468;SDS011;11401;50.792;4.352;2023-09-18T21:19:33;7.97;;;3.58;;
22468;SDS011;11401;50.792;4.352;2023-09-18T21:22:00;9.07;;;3.30;;
22468;SDS011;11401;50.792;4.352;2023-09-18T21:24:27;10.38;;;4.05;;
22468;SDS011;11401;50.792;4.352;2023-09-18T21:26:54;9.00;;;3.33;;
22468;SDS011;11401;50.792;4.352;2023-09-18T21:29:21;12.30;;;3.25;;
22468;SDS011;11401;50.792;4.352;2023-09-18T21:31:53;11.80;;;3.40;;
22468;SDS011;11401;50.792;4.352;2023-09-18T21:34:23;5.65;;;2.80;;
22468;SDS011;11401;50.792;4.352;2023-09-18T21:36:50;10.52;;;4.22;;
22468;SDS011;11401;50.792;4.352;2023-09-18T21:39:18;8.65;;;2.83;;
22468;SDS011;11401;50.792;4.352;2023-09-18T21:41:46;8.38;;;2.90;;
22468;SDS011;11401;50.792;4.352;2023-09-18T21:44:13;10.38;;;3.05;;
22468;SDS011;11401;50.792;4.352;2023-09-18T21:46:41;5.38;;;2.75;;